PWSweather.com
Personal Weather Stations
Station Observations
BWSWX1
Teesside, BillinghamGB TS23 1DL

TeessideBillinghamGB TS23 1DL

Lat: 54.588219, Lon: -1.289528

Elevation: 39

Station Type: Davis Vantage Pro2 Plus

http://billinghamweather.com/index.php

Latest ConditionsUpdated 11:00:14 AM GMT Thursday, Nov 23, 2017
Currently Today's Max Today's Min Today's Average
Temperature 44.8°F7.1°C 51.5°F10.8°C 39.8°F4.3°C 44.8°F7.1°C
Dew Point 40.2°F4.6°C 48.4°F9.1°C 35.6°F2.0°C 41.7°F5.4°C
Winds 7.3 mph W11.7 kmh W 8.9 mph SW14.3 kmh SW - 3.9 mph 6.3 kmh
Wind Gusts 17.0 mph27.4 kmh 20.0 mph32.2 kmh - -
Humidity 84% 94% 82% 89%
Pressure 29.12 in986.1 mb 29.13 in986.5 mb 28.83 in976.3 mb -
Precipitation - 0.04 in1.0 mm - -
Hour Temp Dew Point Humidity Winds Wind Gusts Pressure Precip Precip Rate Daily Precip Total
11:00 AM 44.8°F7.1°C 40.2°F4.6°C 84% 7.3 mph W11.7 kmh W 17.0 mph27.4 kmh 29.12 in986.1 mb - 0.00 in0.0 mm 0.04 in1.0 mm
10:50 AM 44.2°F6.8°C 40.6°F4.8°C 87% 4.2 mph NW6.8 kmh NW 20.0 mph32.2 kmh 29.12 in986.1 mb - 0.00 in0.0 mm 0.04 in1.0 mm
10:40 AM 43.0°F6.1°C 40.0°F4.4°C 89% 4.8 mph WSW7.7 kmh WSW 10.0 mph16.1 kmh 29.12 in986.1 mb - 0.00 in0.0 mm 0.04 in1.0 mm
10:30 AM 42.0°F5.6°C 39.0°F3.9°C 89% 4.7 mph SW7.6 kmh SW 9.0 mph14.5 kmh 29.12 in986.1 mb - 0.00 in0.0 mm 0.04 in1.0 mm
10:20 AM 41.5°F5.3°C 38.5°F3.6°C 89% 4.2 mph WSW6.8 kmh WSW 9.0 mph14.5 kmh 29.13 in986.5 mb - 0.00 in0.0 mm 0.04 in1.0 mm
10:10 AM 41.3°F5.2°C 38.3°F3.5°C 89% 2.6 mph WSW4.2 kmh WSW 7.0 mph11.3 kmh 29.13 in986.5 mb - 0.00 in0.0 mm 0.04 in1.0 mm
10:00 AM 41.1°F5.1°C 38.1°F3.4°C 89% 4.1 mph WSW6.6 kmh WSW 8.0 mph12.9 kmh 29.13 in986.5 mb - 0.00 in0.0 mm 0.04 in1.0 mm
09:50 AM 41.0°F5.0°C 38.0°F3.3°C 89% 4.4 mph SW7.1 kmh SW 9.0 mph14.5 kmh 29.12 in986.1 mb - 0.00 in0.0 mm 0.04 in1.0 mm
09:40 AM 41.0°F5.0°C 38.0°F3.3°C 89% 7.3 mph SW11.7 kmh SW 10.0 mph16.1 kmh 29.11 in985.8 mb - 0.00 in0.0 mm 0.04 in1.0 mm
09:30 AM 41.1°F5.1°C 37.5°F3.1°C 87% 8.9 mph SW14.3 kmh SW 17.0 mph27.4 kmh 29.12 in986.1 mb - 0.00 in0.0 mm 0.04 in1.0 mm
09:20 AM 41.7°F5.4°C 38.1°F3.4°C 87% 5.7 mph W9.2 kmh W 11.0 mph17.7 kmh 29.13 in986.5 mb - 0.00 in0.0 mm 0.04 in1.0 mm
09:10 AM 41.5°F5.3°C 37.9°F3.3°C 87% 8.6 mph S13.8 kmh S 15.0 mph24.1 kmh 29.11 in985.8 mb - 0.00 in0.0 mm 0.04 in1.0 mm
09:00 AM 41.2°F5.1°C 37.6°F3.1°C 87% 2.7 mph WSW4.3 kmh WSW 4.0 mph6.4 kmh 29.11 in985.8 mb - 0.00 in0.0 mm 0.04 in1.0 mm
08:50 AM 40.9°F4.9°C 37.0°F2.8°C 86% 3.5 mph WSW5.6 kmh WSW 8.0 mph12.9 kmh 29.10 in985.4 mb - 0.00 in0.0 mm 0.04 in1.0 mm
08:40 AM 40.9°F4.9°C 37.0°F2.8°C 86% 2.6 mph SSW4.2 kmh SSW 7.0 mph11.3 kmh 29.09 in985.1 mb - 0.00 in0.0 mm 0.04 in1.0 mm
08:30 AM 40.5°F4.7°C 36.7°F2.6°C 86% 4.5 mph SSW7.2 kmh SSW 7.0 mph11.3 kmh 29.08 in984.8 mb - 0.00 in0.0 mm 0.04 in1.0 mm
08:20 AM 40.1°F4.5°C 36.2°F2.3°C 86% 4.1 mph WSW6.6 kmh WSW 9.0 mph14.5 kmh 29.08 in984.8 mb - 0.00 in0.0 mm 0.04 in1.0 mm
08:10 AM 39.8°F4.3°C 35.7°F2.1°C 85% 3.4 mph WSW5.5 kmh WSW 5.0 mph8.0 kmh 29.08 in984.8 mb - 0.00 in0.0 mm 0.04 in1.0 mm
08:00 AM 40.0°F4.4°C 35.6°F2.0°C 84% 0.2 mph SW0.3 kmh SW 2.0 mph3.2 kmh 29.08 in984.8 mb - 0.00 in0.0 mm 0.04 in1.0 mm
07:50 AM 40.2°F4.6°C 35.8°F2.1°C 84% 0.7 mph WSW1.1 kmh WSW 3.0 mph4.8 kmh 29.08 in984.8 mb - 0.00 in0.0 mm 0.04 in1.0 mm
07:40 AM 40.4°F4.7°C 35.6°F2.0°C 83% 0.2 mph SW0.3 kmh SW 1.0 mph1.6 kmh 29.07 in984.4 mb - 0.00 in0.0 mm 0.04 in1.0 mm
07:30 AM 40.6°F4.8°C 35.8°F2.1°C 83% 0.4 mph SE0.6 kmh SE 3.0 mph4.8 kmh 29.07 in984.4 mb - 0.00 in0.0 mm 0.04 in1.0 mm
07:20 AM 41.0°F5.0°C 35.9°F2.2°C 82% 4.1 mph SE6.6 kmh SE 6.0 mph9.7 kmh 29.06 in984.1 mb - 0.00 in0.0 mm 0.04 in1.0 mm
07:10 AM 41.1°F5.1°C 36.0°F2.2°C 82% 6.7 mph WSW10.8 kmh WSW 9.0 mph14.5 kmh 29.05 in983.7 mb - 0.00 in0.0 mm 0.04 in1.0 mm
07:00 AM 41.1°F5.1°C 36.3°F2.4°C 83% 5.0 mph W8.0 kmh W 8.0 mph12.9 kmh 29.04 in983.4 mb - 0.00 in0.0 mm 0.04 in1.0 mm
06:50 AM 41.3°F5.2°C 36.8°F2.7°C 84% 6.0 mph WSW9.7 kmh WSW 9.0 mph14.5 kmh 29.04 in983.4 mb - 0.00 in0.0 mm 0.04 in1.0 mm
06:40 AM 41.6°F5.3°C 37.1°F2.8°C 84% 5.2 mph SW8.4 kmh SW 7.0 mph11.3 kmh 29.03 in983.1 mb - 0.00 in0.0 mm 0.04 in1.0 mm
06:30 AM 42.0°F5.6°C 37.5°F3.1°C 84% 5.5 mph WSW8.9 kmh WSW 8.0 mph12.9 kmh 29.02 in982.7 mb - 0.00 in0.0 mm 0.04 in1.0 mm
06:20 AM 42.4°F5.8°C 38.2°F3.4°C 85% 7.6 mph WSW12.2 kmh WSW 15.0 mph24.1 kmh 29.02 in982.7 mb - 0.00 in0.0 mm 0.04 in1.0 mm
06:10 AM 42.9°F6.1°C 38.7°F3.7°C 85% 7.3 mph WSW11.7 kmh WSW 12.0 mph19.3 kmh 29.01 in982.4 mb - 0.00 in0.0 mm 0.04 in1.0 mm
06:00 AM 43.1°F6.2°C 38.9°F3.8°C 85% 8.3 mph WSW13.4 kmh WSW 11.0 mph17.7 kmh 29.00 in982.1 mb - 0.00 in0.0 mm 0.04 in1.0 mm
05:50 AM 43.5°F6.4°C 39.6°F4.2°C 86% 7.5 mph WSW12.1 kmh WSW 11.0 mph17.7 kmh 28.99 in981.7 mb - 0.00 in0.0 mm 0.04 in1.0 mm
05:40 AM 43.9°F6.6°C 40.3°F4.6°C 87% 6.0 mph WSW9.7 kmh WSW 8.0 mph12.9 kmh 28.98 in981.4 mb - 0.00 in0.0 mm 0.04 in1.0 mm
05:30 AM 44.3°F6.8°C 41.0°F5.0°C 88% 6.0 mph WSW9.7 kmh WSW 11.0 mph17.7 kmh 28.97 in981.0 mb - 0.00 in0.0 mm 0.04 in1.0 mm
05:20 AM 44.7°F7.1°C 41.7°F5.4°C 89% 5.6 mph SW9.0 kmh SW 11.0 mph17.7 kmh 28.97 in981.0 mb - 0.00 in0.0 mm 0.04 in1.0 mm
05:10 AM 45.1°F7.3°C 42.3°F5.7°C 90% 6.4 mph SW10.3 kmh SW 9.0 mph14.5 kmh 28.96 in980.7 mb - 0.00 in0.0 mm 0.04 in1.0 mm
05:00 AM 45.4°F7.4°C 42.9°F6.1°C 91% 5.6 mph NNW9.0 kmh NNW 17.0 mph27.4 kmh 28.96 in980.7 mb - 0.00 in0.0 mm 0.04 in1.0 mm
04:50 AM 45.7°F7.6°C 43.2°F6.2°C 91% 5.6 mph WSW9.0 kmh WSW 12.0 mph19.3 kmh 28.95 in980.4 mb - 0.00 in0.0 mm 0.04 in1.0 mm
04:40 AM 46.3°F7.9°C 44.1°F6.7°C 92% 4.3 mph WSW6.9 kmh WSW 7.0 mph11.3 kmh 28.94 in980.0 mb - 0.00 in0.0 mm 0.04 in1.0 mm
04:30 AM 47.0°F8.3°C 44.8°F7.1°C 92% 6.9 mph WSW11.1 kmh WSW 12.0 mph19.3 kmh 28.93 in979.7 mb - 0.01 in0.3 mm 0.04 in1.0 mm
04:20 AM 48.0°F8.9°C 46.1°F7.8°C 93% 8.2 mph WNW13.2 kmh WNW 12.0 mph19.3 kmh 28.91 in979.0 mb - 0.01 in0.3 mm 0.04 in1.0 mm
04:10 AM 48.3°F9.1°C 46.6°F8.1°C 94% 7.1 mph SW11.4 kmh SW 11.0 mph17.7 kmh 28.90 in978.7 mb - 0.01 in0.3 mm 0.03 in0.8 mm
04:00 AM 48.0°F8.9°C 46.1°F7.8°C 93% 5.5 mph W8.9 kmh W 10.0 mph16.1 kmh 28.89 in978.3 mb - 0.02 in0.5 mm 0.03 in0.8 mm
03:50 AM 47.7°F8.7°C 45.8°F7.7°C 93% 4.6 mph WSW7.4 kmh WSW 8.0 mph12.9 kmh 28.88 in978.0 mb - 0.00 in0.0 mm 0.01 in0.3 mm
03:40 AM 47.1°F8.4°C 45.2°F7.3°C 93% 2.3 mph SW3.7 kmh SW 4.0 mph6.4 kmh 28.88 in978.0 mb - 0.00 in0.0 mm 0.01 in0.3 mm
03:30 AM 46.7°F8.2°C 44.8°F7.1°C 93% 0.9 mph WSW1.4 kmh WSW 4.0 mph6.4 kmh 28.88 in978.0 mb - 0.00 in0.0 mm 0.01 in0.3 mm
03:20 AM 46.6°F8.1°C 44.7°F7.1°C 93% 0.2 mph WSW0.3 kmh WSW 1.0 mph1.6 kmh 28.88 in978.0 mb - 0.00 in0.0 mm 0.01 in0.3 mm
03:10 AM 46.7°F8.2°C 44.8°F7.1°C 93% 1.0 mph WSW1.6 kmh WSW 3.0 mph4.8 kmh 28.88 in978.0 mb - 0.00 in0.0 mm 0.01 in0.3 mm
03:00 AM 46.8°F8.2°C 44.9°F7.2°C 93% Calm Calm -- 28.87 in977.7 mb - 0.00 in0.0 mm 0.01 in0.3 mm
02:50 AM 46.8°F8.2°C 44.9°F7.2°C 93% 0.6 mph WSW1.0 kmh WSW 3.0 mph4.8 kmh 28.88 in978.0 mb - 0.00 in0.0 mm 0.01 in0.3 mm
02:40 AM 46.9°F8.3°C 44.7°F7.1°C 92% 0.8 mph SW1.3 kmh SW 4.0 mph6.4 kmh 28.89 in978.3 mb - 0.00 in0.0 mm 0.01 in0.3 mm
02:30 AM 47.2°F8.4°C 45.3°F7.4°C 93% 1.3 mph WSW2.1 kmh WSW 2.0 mph3.2 kmh 28.88 in978.0 mb - 0.00 in0.0 mm 0.01 in0.3 mm
02:20 AM 47.4°F8.6°C 45.5°F7.5°C 93% 1.6 mph S2.6 kmh S 4.0 mph6.4 kmh 28.87 in977.7 mb - 0.00 in0.0 mm 0.01 in0.3 mm
02:10 AM 47.8°F8.8°C 45.9°F7.7°C 93% 4.0 mph WSW6.4 kmh WSW 6.0 mph9.7 kmh 28.87 in977.7 mb - 0.00 in0.0 mm 0.01 in0.3 mm
02:00 AM 48.2°F9.0°C 46.3°F7.9°C 93% 6.3 mph WSW10.1 kmh WSW 9.0 mph14.5 kmh 28.88 in978.0 mb - 0.00 in0.0 mm 0.01 in0.3 mm
01:50 AM 48.8°F9.3°C 46.9°F8.3°C 93% 2.0 mph W3.2 kmh W 6.0 mph9.7 kmh 28.88 in978.0 mb - 0.00 in0.0 mm 0.01 in0.3 mm
01:40 AM 49.2°F9.6°C 47.3°F8.5°C 93% 0.5 mph SW0.8 kmh SW 1.0 mph1.6 kmh 28.87 in977.7 mb - 0.00 in0.0 mm 0.01 in0.3 mm
01:30 AM 49.3°F9.6°C 47.4°F8.6°C 93% Calm Calm -- 28.86 in977.3 mb - 0.00 in0.0 mm 0.01 in0.3 mm
01:20 AM 49.4°F9.7°C 47.5°F8.6°C 93% 0.4 mph SSW0.6 kmh SSW 1.0 mph1.6 kmh 28.86 in977.3 mb - 0.00 in0.0 mm 0.01 in0.3 mm
01:10 AM 49.4°F9.7°C 47.5°F8.6°C 93% 0.2 mph SW0.3 kmh SW -- 28.87 in977.7 mb - 0.00 in0.0 mm 0.01 in0.3 mm
01:00 AM 49.6°F9.8°C 47.4°F8.6°C 92% 0.6 mph SSW1.0 kmh SSW 2.0 mph3.2 kmh 28.86 in977.3 mb - 0.00 in0.0 mm 0.01 in0.3 mm
12:50 AM 49.6°F9.8°C 47.4°F8.6°C 92% 2.4 mph SW3.9 kmh SW 4.0 mph6.4 kmh 28.86 in977.3 mb - 0.01 in0.3 mm 0.01 in0.3 mm
12:40 AM 49.8°F9.9°C 47.6°F8.7°C 92% 3.0 mph WSW4.8 kmh WSW 4.0 mph6.4 kmh 28.86 in977.3 mb - 0.00 in0.0 mm 0.01 in0.3 mm
12:30 AM 50.1°F10.1°C 47.6°F8.7°C 91% 3.8 mph SW6.1 kmh SW 7.0 mph11.3 kmh 28.85 in977.0 mb - 0.00 in0.0 mm 0.01 in0.3 mm
12:20 AM 50.5°F10.3°C 47.7°F8.7°C 90% 2.0 mph WSW3.2 kmh WSW 3.0 mph4.8 kmh 28.84 in976.6 mb - 0.00 in0.0 mm 0.01 in0.3 mm
12:10 AM 50.9°F10.5°C 48.1°F8.9°C 90% 0.2 mph WNW0.3 kmh WNW 3.0 mph4.8 kmh 28.83 in976.3 mb - 0.00 in0.0 mm 0.01 in0.3 mm
12:00 AM 51.5°F10.8°C 48.4°F9.1°C 89% 4.6 mph WNW7.4 kmh WNW 7.0 mph11.3 kmh 28.83 in976.3 mb - 0.01 in0.3 mm 0.01 in0.3 mm